PHOENIX SKY HARBOR INTL

KPHX (PHX)
Phoenix, Arizona
Towered

Vatsim Metar:
KPHX 181951Z VRB04KT 10SM FEW250 36/M03 A2990 RMK AO2 SLP103 T03611033

No ATC Online

Traffic

Inbound:
Ident
Type
Name
ETA
Phase
UAL816
B737
Tony Ryszewski KPHX
20:41 Z
Descent
SWA1104
B737
Michael Session KATL
20:51 Z
Cruse
CKS7981
B763
Patrick GK Brown KBWI
Boarding
SWA2440
B738
967414
22:01 Z
Cruse
AAL1983
A20N
Matthew dicomo MIA
23:30 Z
Cruse

Outbound:
Ident
Type
Name
Destination
Phase
ETD6
B77W
Kevin huggins EGLL
OMAA
Boarding
SWA1287
B737
Brandon K KONT
KLGB
Boarding
SWA8375
B738
Tony Powell KMDW
KSFO
Climb